createdAt,value
2022-10-17T00:01:16.131Z,23.80
2022-10-17T00:04:19.932Z,23.70
2022-10-17T00:07:23.157Z,23.48
2022-10-17T00:10:26.788Z,24.15
2022-10-17T00:13:29.936Z,23.83
2022-10-17T00:16:37.511Z,23.83
2022-10-17T00:19:40.542Z,21.92
2022-10-17T00:22:44.002Z,23.40
2022-10-17T00:25:47.031Z,21.13
2022-10-17T00:28:51.879Z,22.08
2022-10-17T00:31:58.109Z,22.80
2022-10-17T00:35:01.973Z,21.17
2022-10-17T00:38:05.034Z,22.57
2022-10-17T00:41:10.453Z,22.92
2022-10-17T00:44:31.699Z,21.95
2022-10-17T00:47:37.112Z,21.20
2022-10-17T00:50:43.172Z,22.07
2022-10-17T00:53:46.977Z,20.83
2022-10-17T00:56:50.696Z,21.45
2022-10-17T00:59:57.860Z,20.75
2022-10-17T01:03:01.092Z,20.57
2022-10-17T01:06:04.358Z,20.85
2022-10-17T01:09:07.490Z,22.13
2022-10-17T01:12:10.720Z,21.50
2022-10-17T01:15:51.712Z,21.70
2022-10-17T01:19:03.866Z,20.42
2022-10-17T01:22:15.411Z,20.62
2022-10-17T01:25:43.206Z,20.52
2022-10-17T01:29:12.758Z,20.33
2022-10-17T01:32:34.559Z,19.60
2022-10-17T01:35:43.719Z,19.62
2022-10-17T01:38:56.625Z,19.67
2022-10-17T01:42:11.695Z,19.97
2022-10-17T01:45:21.613Z,19.70
2022-10-17T01:48:32.233Z,19.33
2022-10-17T01:51:44.867Z,20.15
2022-10-17T01:54:54.400Z,19.93
2022-10-17T01:58:10.279Z,20.08
2022-10-17T02:01:14.012Z,19.27
2022-10-17T02:04:17.762Z,19.05
2022-10-17T02:07:20.812Z,19.77
2022-10-17T02:10:44.729Z,19.70
2022-10-17T02:14:19.934Z,20.02
2022-10-17T02:17:43.522Z,19.37
2022-10-17T02:21:02.187Z,19.63
2022-10-17T02:24:27.116Z,18.70
2022-10-17T02:27:54.622Z,18.50
2022-10-17T02:31:06.898Z,18.17
2022-10-17T02:34:18.684Z,19.02
2022-10-17T02:37:27.677Z,18.02
2022-10-17T02:40:32.016Z,19.05
2022-10-17T02:43:37.144Z,18.90
2022-10-17T02:46:45.232Z,18.65
2022-10-17T02:49:52.232Z,17.52
2022-10-17T02:53:02.276Z,18.90
2022-10-17T02:56:17.239Z,17.92
2022-10-17T02:59:22.819Z,18.87
2022-10-17T03:02:26.948Z,17.02
2022-10-17T03:05:31.398Z,17.50
2022-10-17T03:08:35.462Z,20.65
2022-10-17T03:11:39.456Z,19.15
2022-10-17T03:14:43.175Z,18.62
2022-10-17T03:17:46.627Z,17.33
2022-10-17T03:20:51.400Z,17.73
2022-10-17T03:23:54.871Z,17.58
2022-10-17T03:26:58.265Z,17.87
2022-10-17T03:30:01.869Z,18.23
2022-10-17T03:33:06.952Z,19.58
2022-10-17T03:36:13.400Z,18.12
2022-10-17T03:39:16.666Z,18.17
2022-10-17T03:42:20.131Z,18.45
2022-10-17T03:45:23.407Z,18.85
2022-10-17T03:48:29.525Z,17.67
2022-10-17T03:51:36.062Z,16.37
2022-10-17T03:54:40.301Z,16.35
2022-10-17T03:57:45.498Z,18.45
2022-10-17T04:00:49.560Z,16.80
2022-10-17T04:03:56.132Z,16.92
2022-10-17T04:06:59.474Z,16.75
2022-10-17T04:10:04.766Z,16.27
2022-10-17T04:13:08.550Z,16.60
2022-10-17T04:16:17.552Z,18.17
2022-10-17T04:19:21.938Z,18.12
2022-10-17T04:22:25.929Z,17.37
2022-10-17T04:25:32.212Z,17.60
2022-10-17T04:31:42.353Z,17.52
2022-10-17T04:34:50.196Z,17.42
2022-10-17T04:37:54.193Z,17.33
2022-10-17T04:41:00.150Z,16.92
2022-10-17T04:44:03.930Z,17.27
2022-10-17T04:47:08.418Z,16.83
2022-10-17T04:50:11.770Z,18.40
2022-10-17T04:53:15.998Z,17.83
2022-10-17T04:56:22.370Z,18.90
2022-10-17T04:59:25.932Z,18.92
2022-10-17T05:02:29.504Z,18.30
2022-10-17T05:05:33.320Z,17.43
2022-10-17T05:08:37.935Z,19.00
2022-10-17T05:11:43.433Z,19.87
2022-10-17T05:14:48.678Z,20.27
2022-10-17T05:17:55.416Z,21.27
2022-10-17T05:20:59.906Z,20.95
2022-10-17T05:24:08.794Z,20.27
2022-10-17T05:27:11.879Z,19.90
2022-10-17T05:30:17.149Z,19.45
2022-10-17T05:33:20.346Z,19.10
2022-10-17T05:36:24.500Z,19.95
2022-10-17T05:39:28.956Z,19.95
2022-10-17T05:42:33.156Z,20.45
2022-10-17T05:45:36.766Z,20.37
2022-10-17T05:48:40.937Z,19.63
2022-10-17T05:51:44.189Z,20.52
2022-10-17T05:54:48.012Z,20.15
2022-10-17T05:57:52.746Z,23.23
2022-10-17T06:01:01.730Z,19.33
2022-10-17T06:04:05.102Z,22.45
2022-10-17T06:07:08.424Z,23.77
2022-10-17T06:10:15.165Z,22.77
2022-10-17T06:13:18.836Z,21.75
2022-10-17T06:16:23.008Z,19.40
2022-10-17T06:19:26.268Z,18.65
2022-10-17T06:22:30.099Z,18.27
2022-10-17T06:25:33.930Z,19.20
2022-10-17T06:28:37.468Z,18.67
2022-10-17T06:31:40.788Z,17.75
2022-10-17T06:34:44.230Z,18.55
2022-10-17T06:37:47.639Z,18.27
2022-10-17T06:40:51.465Z,16.73
2022-10-17T06:43:56.698Z,18.12
2022-10-17T06:47:02.279Z,14.77
2022-10-17T06:50:05.677Z,15.60
2022-10-17T06:53:10.904Z,14.07
2022-10-17T06:56:14.883Z,15.05
2022-10-17T06:59:18.725Z,15.30
2022-10-17T07:02:24.413Z,12.75
2022-10-17T07:05:27.924Z,12.35
2022-10-17T07:08:31.549Z,11.77
2022-10-17T07:11:36.353Z,13.32
2022-10-17T07:14:39.446Z,13.95
2022-10-17T07:17:42.947Z,13.43
2022-10-17T07:20:54.973Z,13.05
2022-10-17T07:23:58.380Z,12.07
2022-10-17T07:27:01.860Z,12.70
2022-10-17T07:30:06.233Z,11.15
2022-10-17T07:33:10.207Z,10.70
2022-10-17T07:36:14.084Z,11.88
2022-10-17T07:39:17.154Z,11.33
2022-10-17T07:42:22.284Z,10.98
2022-10-17T07:45:27.770Z,10.93
2022-10-17T07:48:31.924Z,10.30
2022-10-17T07:51:36.145Z,10.65
2022-10-17T07:54:39.869Z,9.47
2022-10-17T07:57:43.288Z,10.70
2022-10-17T08:00:48.591Z,9.68
2022-10-17T08:03:52.333Z,10.10
2022-10-17T08:07:05.423Z,9.32
2022-10-17T08:10:17.722Z,9.07
2022-10-17T08:13:21.963Z,9.05
2022-10-17T08:16:25.250Z,9.23
2022-10-17T08:19:28.371Z,9.18
2022-10-17T08:22:32.544Z,9.63
2022-10-17T08:25:38.668Z,9.20
2022-10-17T08:28:42.523Z,8.75
2022-10-17T08:31:48.302Z,8.95
2022-10-17T08:34:54.266Z,8.93
2022-10-17T08:38:01.836Z,8.38
2022-10-17T08:41:13.812Z,9.00
2022-10-17T08:44:38.310Z,9.07
2022-10-17T08:47:49.939Z,8.10
2022-10-17T08:51:17.454Z,7.97
2022-10-17T08:54:26.312Z,8.05
2022-10-17T08:57:29.930Z,8.00
2022-10-17T09:00:36.119Z,8.32
2022-10-17T09:03:50.323Z,8.15
2022-10-17T09:07:17.495Z,8.13
2022-10-17T09:10:32.940Z,8.70
2022-10-17T09:14:03.671Z,9.43
2022-10-17T09:17:32.892Z,8.32
2022-10-17T09:20:45.794Z,8.73
2022-10-17T09:24:09.625Z,8.10
2022-10-17T09:27:28.400Z,9.98
2022-10-17T09:30:45.268Z,8.50
2022-10-17T09:33:54.920Z,8.05
2022-10-17T09:37:01.075Z,8.05
2022-10-17T09:40:09.101Z,8.00
2022-10-17T09:43:15.457Z,7.78
2022-10-17T09:46:33.783Z,6.80
2022-10-17T09:49:39.638Z,8.05
2022-10-17T09:52:48.820Z,8.00
2022-10-17T09:55:57.056Z,8.35
2022-10-17T09:59:01.612Z,7.65
2022-10-17T10:02:16.578Z,7.57
2022-10-17T10:05:21.756Z,7.40
2022-10-17T10:08:28.474Z,7.45
2022-10-17T10:11:56.378Z,7.15
2022-10-17T10:15:00.465Z,7.62
2022-10-17T10:18:04.486Z,7.33
2022-10-17T10:21:14.813Z,7.45
2022-10-17T10:24:19.458Z,7.53
2022-10-17T10:27:23.080Z,6.80
2022-10-17T10:30:30.175Z,7.03
2022-10-17T10:33:41.330Z,6.70
2022-10-17T10:36:54.449Z,7.07
2022-10-17T10:40:00.053Z,6.97
2022-10-17T10:43:05.708Z,6.68
2022-10-17T10:46:19.639Z,6.57
2022-10-17T10:49:31.650Z,6.63
2022-10-17T10:52:46.486Z,6.00
2022-10-17T10:56:02.404Z,6.18
2022-10-17T10:59:23.330Z,6.18
2022-10-17T11:02:33.812Z,5.80
2022-10-17T11:06:02.703Z,5.20
2022-10-17T11:09:43.581Z,5.28
2022-10-17T11:13:10.854Z,5.55
2022-10-17T11:16:40.442Z,4.70
2022-10-17T11:20:08.091Z,4.70
2022-10-17T11:23:21.633Z,4.30
2022-10-17T11:26:31.739Z,4.00
2022-10-17T11:29:40.446Z,4.12
2022-10-17T11:32:53.925Z,4.45
2022-10-17T11:36:03.466Z,4.40
2022-10-17T11:39:15.048Z,4.30
2022-10-17T11:43:00.569Z,5.00
2022-10-17T11:46:13.411Z,4.12
2022-10-17T11:49:21.940Z,3.55
2022-10-17T11:52:56.308Z,4.80
2022-10-17T11:56:01.341Z,4.00
2022-10-17T11:59:23.411Z,4.55
2022-10-17T12:02:47.524Z,4.45
2022-10-17T12:05:56.272Z,3.53
2022-10-17T12:09:20.674Z,3.87
2022-10-17T12:12:30.215Z,4.20
2022-10-17T12:15:34.405Z,3.87
2022-10-17T12:18:39.494Z,4.15
2022-10-17T12:21:54.695Z,4.03
2022-10-17T12:25:03.055Z,3.97
2022-10-17T12:28:27.976Z,4.53
2022-10-17T12:31:34.129Z,5.12
2022-10-17T12:34:39.420Z,4.40
2022-10-17T12:37:44.218Z,4.25
2022-10-17T12:40:52.741Z,5.12
2022-10-17T12:43:56.128Z,4.20
2022-10-17T12:47:19.864Z,4.20
2022-10-17T12:51:23.791Z,3.92
2022-10-17T12:54:26.291Z,3.62
2022-10-17T12:58:05.184Z,4.70
2022-10-17T13:01:34.469Z,5.27
2022-10-17T13:04:38.053Z,3.60
2022-10-17T13:07:44.547Z,3.97
2022-10-17T13:10:52.548Z,3.65
2022-10-17T13:13:59.203Z,3.92
2022-10-17T13:17:06.123Z,3.90
2022-10-17T13:20:27.536Z,4.35
2022-10-17T13:23:38.103Z,4.68
2022-10-17T13:26:45.997Z,4.68
2022-10-17T13:29:49.722Z,4.47
2022-10-17T13:32:54.633Z,4.10
2022-10-17T13:36:01.075Z,4.18
2022-10-17T13:39:12.310Z,4.15
2022-10-17T13:42:40.670Z,4.25
2022-10-17T13:45:50.709Z,3.92
2022-10-17T13:48:54.446Z,4.53
2022-10-17T13:51:59.500Z,4.50
2022-10-17T13:55:11.754Z,5.25
2022-10-17T13:58:17.997Z,4.97
2022-10-17T14:01:22.394Z,6.57
2022-10-17T14:04:26.988Z,4.20
2022-10-17T14:08:05.674Z,4.18
2022-10-17T14:11:02.184Z,4.43
2022-10-17T14:14:20.486Z,4.22
2022-10-17T14:17:29.673Z,4.60
2022-10-17T14:21:08.185Z,4.10
2022-10-17T14:24:28.396Z,4.50
2022-10-17T14:27:55.522Z,4.43
2022-10-17T14:31:19.846Z,4.30
2022-10-17T14:34:29.132Z,4.20
2022-10-17T14:37:50.816Z,4.40
2022-10-17T14:41:29.666Z,4.20
2022-10-17T14:44:29.237Z,4.57
2022-10-17T14:47:43.162Z,5.28
2022-10-17T14:51:15.010Z,4.50
2022-10-17T14:54:30.361Z,4.87
2022-10-17T14:57:33.565Z,3.97
2022-10-17T15:00:36.593Z,5.85
2022-10-17T15:03:40.086Z,4.47
2022-10-17T15:06:43.633Z,4.72
2022-10-17T15:09:49.049Z,4.30
2022-10-17T15:12:59.167Z,4.82
2022-10-17T15:16:19.623Z,5.35
2022-10-17T15:19:22.712Z,5.82
2022-10-17T15:22:26.503Z,6.20
2022-10-17T15:25:31.408Z,9.57
2022-10-17T15:28:35.052Z,11.25
2022-10-17T15:31:38.117Z,13.70
2022-10-17T15:34:41.774Z,19.05
2022-10-17T15:37:46.880Z,11.80
2022-10-17T15:40:52.134Z,10.07
2022-10-17T15:43:55.421Z,10.52
2022-10-17T15:46:58.976Z,11.93
2022-10-17T15:50:04.000Z,9.32
2022-10-17T15:53:11.927Z,8.77
2022-10-17T15:56:36.359Z,8.03
2022-10-17T15:59:39.715Z,9.38
2022-10-17T16:02:43.023Z,11.55
2022-10-17T16:05:46.435Z,9.27
2022-10-17T16:08:50.312Z,10.85
2022-10-17T16:11:53.710Z,10.10
2022-10-17T16:14:57.684Z,12.10
2022-10-17T16:18:04.252Z,12.95
2022-10-17T16:21:14.084Z,13.50
2022-10-17T16:24:17.955Z,14.55
2022-10-17T16:27:21.253Z,14.23
2022-10-17T16:30:27.861Z,16.52
2022-10-17T16:33:31.586Z,16.35
2022-10-17T16:36:35.593Z,14.13
2022-10-17T16:39:38.838Z,14.10
2022-10-17T16:42:43.409Z,14.53
2022-10-17T16:45:46.564Z,12.82
2022-10-17T16:48:51.744Z,14.18
2022-10-17T16:51:56.650Z,14.82
2022-10-17T16:55:00.055Z,14.55
2022-10-17T16:58:04.362Z,16.50
2022-10-17T17:01:11.426Z,18.20
2022-10-17T17:04:15.503Z,28.08
2022-10-17T17:07:20.141Z,30.37
2022-10-17T17:10:23.470Z,38.90
2022-10-17T17:13:28.825Z,36.20
2022-10-17T17:16:34.618Z,32.35
2022-10-17T17:19:38.613Z,27.58
2022-10-17T17:22:42.522Z,22.42
2022-10-17T17:25:46.497Z,20.85
2022-10-17T17:28:51.215Z,18.10
2022-10-17T17:31:55.327Z,21.60
2022-10-17T17:34:59.043Z,22.73
2022-10-17T17:38:03.885Z,20.67
2022-10-17T17:41:08.292Z,19.40
2022-10-17T17:44:16.597Z,17.17
2022-10-17T17:47:20.857Z,18.17
2022-10-17T17:50:25.227Z,18.00
2022-10-17T17:53:29.467Z,19.50
2022-10-17T17:56:33.687Z,17.02
2022-10-17T17:59:39.007Z,16.07
2022-10-17T18:02:44.444Z,19.67
2022-10-17T18:05:49.456Z,20.05
2022-10-17T18:08:56.946Z,21.62
2022-10-17T18:12:02.368Z,21.62
2022-10-17T18:15:07.011Z,19.63
2022-10-17T18:18:11.610Z,19.15
2022-10-17T18:21:15.810Z,19.67
2022-10-17T18:24:19.659Z,22.35
2022-10-17T18:27:23.980Z,23.73
2022-10-17T18:30:29.943Z,24.53
2022-10-17T18:33:37.213Z,23.42
2022-10-17T18:36:41.418Z,23.00
2022-10-17T18:39:45.699Z,24.12
2022-10-17T18:42:49.658Z,23.17
2022-10-17T18:45:57.622Z,24.45
2022-10-17T18:49:02.244Z,24.77
2022-10-17T18:52:06.428Z,26.33
2022-10-17T18:55:11.349Z,27.08
2022-10-17T18:58:15.305Z,26.73
2022-10-17T19:01:25.774Z,27.92
2022-10-17T19:04:30.316Z,29.85
2022-10-17T19:07:34.558Z,29.95
2022-10-17T19:11:02.831Z,29.80
2022-10-17T19:14:13.540Z,30.30
2022-10-17T19:17:17.714Z,31.90
2022-10-17T19:20:21.789Z,33.58
2022-10-17T19:23:25.602Z,35.60
2022-10-17T19:26:31.191Z,34.72
2022-10-17T19:29:34.817Z,35.17
2022-10-17T19:32:39.050Z,34.83
2022-10-17T19:35:42.384Z,35.15
2022-10-17T19:38:47.394Z,33.45
2022-10-17T19:41:51.398Z,36.63
2022-10-17T19:44:55.069Z,32.83
2022-10-17T19:47:58.958Z,34.20
2022-10-17T19:51:03.876Z,35.10
2022-10-17T19:54:07.385Z,32.92
2022-10-17T19:57:11.166Z,33.53
2022-10-17T20:00:15.541Z,31.83
2022-10-17T20:03:20.351Z,29.95
2022-10-17T20:06:24.225Z,32.10
2022-10-17T20:09:27.862Z,31.70
2022-10-17T20:12:32.441Z,30.27
2022-10-17T20:15:37.926Z,32.63
2022-10-17T20:18:43.338Z,31.50
2022-10-17T20:21:47.209Z,31.25
2022-10-17T20:24:50.578Z,33.10
2022-10-17T20:27:54.394Z,32.22
2022-10-17T20:30:59.340Z,31.77
2022-10-17T20:34:03.678Z,28.20
2022-10-17T20:37:07.218Z,31.62
2022-10-17T20:40:33.599Z,31.50
2022-10-17T20:43:35.127Z,29.92
2022-10-17T20:46:44.917Z,29.00
2022-10-17T20:49:51.913Z,29.52
2022-10-17T20:53:05.374Z,29.15
2022-10-17T20:56:26.800Z,28.67
2022-10-17T20:59:30.703Z,29.63
2022-10-17T21:02:33.872Z,28.48
2022-10-17T21:05:40.491Z,28.08
2022-10-17T21:08:45.732Z,30.37
2022-10-17T21:11:55.739Z,29.55
2022-10-17T21:15:09.389Z,30.73
2022-10-17T21:18:12.688Z,28.73
2022-10-17T21:21:21.899Z,29.07
2022-10-17T21:24:25.181Z,28.27
2022-10-17T21:27:28.320Z,29.23
2022-10-17T21:30:32.012Z,28.65
2022-10-17T21:33:35.213Z,28.23
2022-10-17T21:36:38.865Z,28.52
2022-10-17T21:39:42.041Z,30.17
2022-10-17T21:42:46.105Z,28.05
2022-10-17T21:45:49.017Z,30.27
2022-10-17T21:48:53.347Z,31.40
2022-10-17T21:51:56.329Z,30.40
2022-10-17T21:54:59.575Z,29.27
2022-10-17T21:58:05.106Z,26.60
2022-10-17T22:01:17.222Z,26.15
2022-10-17T22:04:21.552Z,27.25
2022-10-17T22:07:24.709Z,23.08
2022-10-17T22:10:29.234Z,22.02
2022-10-17T22:13:32.408Z,24.40
2022-10-17T22:16:35.733Z,23.40
2022-10-17T22:19:38.642Z,24.00
2022-10-17T22:22:42.183Z,24.98
2022-10-17T22:25:56.611Z,22.75
2022-10-17T22:29:00.282Z,21.75
2022-10-17T22:32:03.437Z,22.20
2022-10-17T22:35:07.450Z,21.02
2022-10-17T22:38:10.827Z,20.73
2022-10-17T22:41:14.213Z,21.98
2022-10-17T22:44:17.384Z,21.80
2022-10-17T22:47:20.616Z,21.77
2022-10-17T22:50:24.555Z,20.30
2022-10-17T22:53:29.795Z,21.73
2022-10-17T22:56:32.979Z,22.83
2022-10-17T22:59:36.228Z,21.67
2022-10-17T23:02:41.093Z,21.98
2022-10-17T23:05:45.056Z,21.48
2022-10-17T23:08:49.057Z,20.42
2022-10-17T23:11:52.291Z,20.10
2022-10-17T23:14:55.306Z,20.85
2022-10-17T23:17:59.787Z,19.87
2022-10-17T23:21:03.184Z,20.33
2022-10-17T23:24:06.794Z,20.33
2022-10-17T23:27:09.808Z,20.70
2022-10-17T23:30:13.589Z,21.33
2022-10-17T23:33:17.043Z,20.85
2022-10-17T23:36:22.087Z,21.45
2022-10-17T23:39:25.416Z,21.45
2022-10-17T23:42:28.771Z,21.55
2022-10-17T23:45:36.122Z,19.95
2022-10-17T23:48:41.054Z,21.48
2022-10-17T23:51:44.070Z,20.87
2022-10-17T23:54:47.570Z,21.15
2022-10-17T23:57:53.276Z,20.12
